createdAt,value
2022-12-03T00:04:58.463Z,7.91
2022-12-03T00:10:06.273Z,7.90
2022-12-03T00:15:14.371Z,7.88
2022-12-03T00:20:22.144Z,7.89
2022-12-03T00:25:29.096Z,7.88
2022-12-03T00:30:35.992Z,7.87
2022-12-03T00:35:42.973Z,7.85
2022-12-03T00:40:49.633Z,7.81
2022-12-03T00:45:56.675Z,7.83
2022-12-03T00:51:03.564Z,7.83
2022-12-03T00:56:11.261Z,7.82
2022-12-03T01:01:17.998Z,7.84
2022-12-03T01:06:24.943Z,7.84
2022-12-03T01:11:41.669Z,7.83
2022-12-03T01:16:49.058Z,7.81
2022-12-03T01:21:55.996Z,7.82
2022-12-03T01:27:03.155Z,7.79
2022-12-03T01:32:20.101Z,7.78
2022-12-03T01:37:27.773Z,7.77
2022-12-03T01:42:36.204Z,7.77
2022-12-03T01:47:43.143Z,7.75
2022-12-03T01:52:49.845Z,7.78
2022-12-03T01:57:58.263Z,7.78
2022-12-03T02:03:09.325Z,7.78
2022-12-03T02:08:32.696Z,7.77
2022-12-03T02:13:40.216Z,7.76
2022-12-03T02:18:47.724Z,7.76
2022-12-03T02:24:00.148Z,7.75
2022-12-03T02:29:07.463Z,7.76
2022-12-03T02:34:27.597Z,7.76
2022-12-03T02:39:35.178Z,7.73
2022-12-03T02:44:41.987Z,7.74
2022-12-03T02:49:48.947Z,7.74
2022-12-03T02:54:56.471Z,7.74
2022-12-03T03:00:03.597Z,7.72
2022-12-03T03:05:12.387Z,7.71
2022-12-03T03:10:21.055Z,7.70
2022-12-03T03:15:28.136Z,7.69
2022-12-03T03:20:34.966Z,7.70
2022-12-03T03:25:43.130Z,7.68
2022-12-03T03:30:49.988Z,7.70
2022-12-03T03:35:57.047Z,7.68
2022-12-03T03:41:05.541Z,7.68
2022-12-03T03:46:13.148Z,7.67
2022-12-03T03:51:20.827Z,7.65
2022-12-03T03:56:27.880Z,7.63
2022-12-03T04:01:35.105Z,7.63
2022-12-03T04:06:42.162Z,7.64
2022-12-03T04:12:07.207Z,7.65
2022-12-03T04:17:14.717Z,7.63
2022-12-03T04:22:39.726Z,7.61
2022-12-03T04:28:04.237Z,7.63
2022-12-03T04:33:28.887Z,7.61
2022-12-03T04:38:35.995Z,7.59
2022-12-03T04:43:56.867Z,7.61
2022-12-03T04:49:03.898Z,7.63
2022-12-03T04:54:11.037Z,7.61
2022-12-03T04:59:17.908Z,7.60
2022-12-03T05:04:25.118Z,7.60
2022-12-03T05:09:32.111Z,7.59
2022-12-03T05:14:39.505Z,7.58
2022-12-03T05:20:09.395Z,7.58
2022-12-03T05:25:16.767Z,7.60
2022-12-03T05:30:24.184Z,7.58
2022-12-03T05:35:30.970Z,7.56
2022-12-03T05:40:37.807Z,7.57
2022-12-03T05:45:45.539Z,7.57
2022-12-03T05:50:52.656Z,7.56
2022-12-03T05:55:59.798Z,7.56
2022-12-03T06:01:06.594Z,7.55
2022-12-03T06:06:13.544Z,7.53
2022-12-03T06:11:20.277Z,7.53
2022-12-03T06:16:27.446Z,7.52
2022-12-03T06:21:34.561Z,7.52
2022-12-03T06:26:41.287Z,7.56
2022-12-03T06:31:48.487Z,7.54
2022-12-03T06:36:55.692Z,7.52
2022-12-03T06:42:02.752Z,7.51
2022-12-03T06:47:09.758Z,7.51
2022-12-03T06:52:16.744Z,7.51
2022-12-03T06:57:23.699Z,7.52
2022-12-03T07:02:30.899Z,7.50
2022-12-03T07:07:38.158Z,7.50
2022-12-03T07:12:45.436Z,7.50
2022-12-03T07:17:52.309Z,7.51
2022-12-03T07:22:59.292Z,7.49
2022-12-03T07:28:06.487Z,7.48
2022-12-03T07:33:13.555Z,7.49
2022-12-03T07:38:20.347Z,7.49
2022-12-03T07:43:27.318Z,7.47
2022-12-03T07:48:34.188Z,7.46
2022-12-03T07:53:41.197Z,7.46
2022-12-03T07:58:48.238Z,7.47
2022-12-03T08:03:55.358Z,7.46
2022-12-03T08:09:02.172Z,7.46
2022-12-03T08:14:13.297Z,7.48
2022-12-03T08:19:20.133Z,7.46
2022-12-03T08:24:26.957Z,7.45
2022-12-03T08:29:34.305Z,7.44
2022-12-03T08:34:42.654Z,7.45
2022-12-03T08:39:50.957Z,7.46
2022-12-03T08:44:58.746Z,7.44
2022-12-03T08:50:16.189Z,7.44
2022-12-03T08:55:34.318Z,7.46
2022-12-03T09:00:41.982Z,7.46
2022-12-03T09:05:49.028Z,7.43
2022-12-03T09:10:56.060Z,7.42
2022-12-03T09:16:03.349Z,7.43
2022-12-03T09:21:10.859Z,7.45
2022-12-03T09:26:17.868Z,7.44
2022-12-03T09:31:25.217Z,7.43
2022-12-03T09:36:32.800Z,7.41
2022-12-03T09:41:39.847Z,7.44
2022-12-03T09:46:47.916Z,7.43
2022-12-03T09:51:57.259Z,7.42
2022-12-03T09:57:05.996Z,7.40
2022-12-03T10:02:21.987Z,7.42
2022-12-03T10:07:29.135Z,7.44
2022-12-03T10:12:36.496Z,7.40
2022-12-03T10:17:43.408Z,7.39
2022-12-03T10:22:50.507Z,7.41
2022-12-03T10:28:01.267Z,7.42
2022-12-03T10:33:18.790Z,7.39
2022-12-03T10:38:26.967Z,7.40
2022-12-03T10:43:33.747Z,7.43
2022-12-03T10:48:40.851Z,7.43
2022-12-03T10:53:47.799Z,7.46
2022-12-03T10:58:54.599Z,7.46
2022-12-03T11:04:04.245Z,7.50
2022-12-03T11:09:17.899Z,7.48
2022-12-03T11:14:41.797Z,7.49
2022-12-03T11:19:50.047Z,7.47
2022-12-03T11:25:10.285Z,7.48
2022-12-03T11:30:37.859Z,7.50
2022-12-03T11:36:04.150Z,7.51
2022-12-03T11:41:11.418Z,7.48
2022-12-03T11:46:18.644Z,7.45
2022-12-03T11:51:26.308Z,7.49
2022-12-03T11:56:33.416Z,7.51
2022-12-03T12:01:41.147Z,7.53
2022-12-03T12:06:53.161Z,7.55
2022-12-03T12:12:19.457Z,7.57
2022-12-03T12:17:33.356Z,7.59
2022-12-03T12:22:40.247Z,7.59
2022-12-03T12:27:49.828Z,7.58
2022-12-03T12:33:04.110Z,7.59
2022-12-03T12:38:17.431Z,7.62
2022-12-03T12:43:25.949Z,7.64
2022-12-03T12:48:33.840Z,7.64
2022-12-03T12:53:43.240Z,7.65
2022-12-03T12:58:50.477Z,7.69
2022-12-03T13:03:58.808Z,7.72
2022-12-03T13:09:06.058Z,7.77
2022-12-03T13:14:18.108Z,7.81
2022-12-03T13:19:26.709Z,7.84
2022-12-03T13:24:34.967Z,7.86
2022-12-03T13:29:42.097Z,7.87
2022-12-03T13:34:50.918Z,7.87
2022-12-03T13:39:59.397Z,7.88
2022-12-03T13:45:08.588Z,7.93
2022-12-03T13:50:22.078Z,7.94
2022-12-03T13:55:31.356Z,7.96
2022-12-03T14:00:38.680Z,7.97
2022-12-03T14:05:45.904Z,7.97
2022-12-03T14:10:58.617Z,7.98
2022-12-03T14:16:07.707Z,7.99
2022-12-03T14:21:14.667Z,8.01
2022-12-03T14:26:21.737Z,8.03
2022-12-03T14:31:28.823Z,8.05
2022-12-03T14:36:35.457Z,8.09
2022-12-03T14:42:00.037Z,8.08
2022-12-03T14:47:07.057Z,8.11
2022-12-03T14:52:14.245Z,8.13
2022-12-03T14:57:21.647Z,8.15
2022-12-03T15:02:29.227Z,8.15
2022-12-03T15:07:36.272Z,8.18
2022-12-03T15:12:43.166Z,8.19
2022-12-03T15:17:50.237Z,8.21
2022-12-03T15:22:57.256Z,8.21
2022-12-03T15:28:05.706Z,8.25
2022-12-03T15:33:12.998Z,8.27
2022-12-03T15:38:19.737Z,8.28
2022-12-03T15:43:26.968Z,8.28
2022-12-03T15:48:34.637Z,8.32
2022-12-03T15:53:41.807Z,8.36
2022-12-03T15:58:48.811Z,8.36
2022-12-03T16:03:55.617Z,8.38
2022-12-03T16:09:02.199Z,8.41
2022-12-03T16:14:09.235Z,8.44
2022-12-03T16:19:16.008Z,8.44
2022-12-03T16:24:23.097Z,8.46
2022-12-03T16:29:30.578Z,8.48
2022-12-03T16:34:37.808Z,8.50
2022-12-03T16:39:45.137Z,8.54
2022-12-03T16:45:10.268Z,8.54
2022-12-03T16:50:24.465Z,8.56
2022-12-03T16:55:36.458Z,8.61
2022-12-03T17:00:43.808Z,8.61
2022-12-03T17:05:51.368Z,8.63
2022-12-03T17:10:58.725Z,8.65
2022-12-03T17:16:07.189Z,8.67
2022-12-03T17:21:14.470Z,8.70
2022-12-03T17:26:21.647Z,8.71
2022-12-03T17:31:28.617Z,8.72
2022-12-03T17:36:35.488Z,8.74
2022-12-03T17:41:42.367Z,8.79
2022-12-03T17:46:49.407Z,8.79
2022-12-03T17:51:56.498Z,8.80
2022-12-03T17:57:03.677Z,8.86
2022-12-03T18:02:10.823Z,8.86
2022-12-03T18:07:17.798Z,8.89
2022-12-03T18:12:24.689Z,8.91
2022-12-03T18:17:31.837Z,8.92
2022-12-03T18:22:38.627Z,8.94
2022-12-03T18:27:45.288Z,9.00
2022-12-03T18:32:52.117Z,9.03
2022-12-03T18:37:59.365Z,9.06
2022-12-03T18:43:07.738Z,9.06
2022-12-03T18:48:15.359Z,9.08
2022-12-03T18:53:22.098Z,9.10
2022-12-03T18:58:29.447Z,9.13
2022-12-03T19:03:37.298Z,9.15
2022-12-03T19:08:44.577Z,9.15
2022-12-03T19:13:51.639Z,9.16
2022-12-03T19:18:58.448Z,9.19
2022-12-03T19:29:33.731Z,9.25
2022-12-03T19:34:41.149Z,9.27
2022-12-03T19:39:47.954Z,9.27
2022-12-03T19:44:55.068Z,9.28
2022-12-03T19:50:02.139Z,9.28
2022-12-03T19:55:10.037Z,9.30
2022-12-03T20:00:17.589Z,9.32
2022-12-03T20:05:26.817Z,9.33
2022-12-03T20:10:37.537Z,9.35
2022-12-03T20:15:44.737Z,9.38
2022-12-03T20:20:51.646Z,9.38
2022-12-03T20:25:58.746Z,9.38
2022-12-03T20:31:07.648Z,9.38
2022-12-03T20:36:16.878Z,9.40
2022-12-03T20:41:23.989Z,9.44
2022-12-03T20:46:31.745Z,9.45
2022-12-03T20:51:38.577Z,9.48
2022-12-03T20:56:45.587Z,9.47
2022-12-03T21:01:52.658Z,9.48
2022-12-03T21:06:59.612Z,9.51
2022-12-03T21:12:06.778Z,9.51
2022-12-03T21:17:13.782Z,9.52
2022-12-03T21:22:20.728Z,9.52
2022-12-03T21:27:27.646Z,9.54
2022-12-03T21:32:34.438Z,9.56
2022-12-03T21:37:41.308Z,9.56
2022-12-03T21:42:48.500Z,9.59
2022-12-03T21:47:55.610Z,9.59
2022-12-03T21:53:03.028Z,9.62
2022-12-03T21:58:10.609Z,9.63
2022-12-03T22:03:17.981Z,9.65
2022-12-03T22:08:25.169Z,9.67
2022-12-03T22:13:32.078Z,9.72
2022-12-03T22:18:39.037Z,9.73
2022-12-03T22:23:46.187Z,9.73
2022-12-03T22:28:53.368Z,9.75
2022-12-03T22:34:00.272Z,9.78
2022-12-03T22:39:06.991Z,9.79
2022-12-03T22:44:14.177Z,9.80
2022-12-03T22:49:21.549Z,9.81
2022-12-03T22:54:28.908Z,9.85
2022-12-03T22:59:35.716Z,9.86
2022-12-03T23:04:42.750Z,9.89
2022-12-03T23:09:49.661Z,9.87
2022-12-03T23:14:56.867Z,9.89
2022-12-03T23:20:03.997Z,9.94
2022-12-03T23:25:11.758Z,9.94
2022-12-03T23:30:18.808Z,9.97
2022-12-03T23:35:25.667Z,9.98
2022-12-03T23:40:33.026Z,9.99
2022-12-03T23:45:40.138Z,10.01
2022-12-03T23:50:47.292Z,10.03
2022-12-03T23:55:54.207Z,10.05
